Tortola's Pride — HO-3796 — position and weather

sailwx.info

Track history (hours):
 
Tides and Currents Weather Stations Pressure Air Temp Water Temp Dewpoint Dewpoint Depression Visibility Wind Speed Wind Dir Waves Ship Positions

Tortola's Pride

Last reported at 2016-Feb-03 19:34 UTC. Time now 2016-Feb-07 23:57 UTC.
Position N 18°24' W 064°34'.

Length 49 m; draft 2.8 m.

Type: Cargo ship. MMSI: 355921000.

Date/timePositionNaut miles runAvg speedWind from/ knotsBaromVisibWave heightAir tempDewpointWater temp
2016-Feb-03 19:34N 18°24' W 064°34'13 0.4
2016-Feb-02 07:25N 18°22' W 064°21'8 9.1
2016-Feb-02 06:33N 18°24' W 064°29'  
2016-Jan-31 02:27N 18°26' W 064°37'0 0.0
2016-Jan-31 00:20N 18°26' W 064°37'1 1.2
2016-Jan-30 23:33N 18°25' W 064°36'0 0.0
2016-Jan-30 22:34N 18°25' W 064°36'0 0.0
2016-Jan-30 19:21N 18°25' W 064°36'0 0.0
2016-Jan-30 18:34N 18°25' W 064°36'0 0.0
2016-Jan-30 17:33N 18°25' W 064°36'0 0.0
2016-Jan-30 16:34N 18°25' W 064°36'0 0.0
2016-Jan-30 15:33N 18°25' W 064°36'0 0.0
2016-Jan-30 14:33N 18°25' W 064°36'1 0.0
2016-Jan-29 02:25N 18°26' W 064°37'1 0.1
2016-Jan-28 17:33N 18°25' W 064°36'0 0.0
2016-Jan-28 16:32N 18°25' W 064°36'0 0.0
2016-Jan-28 15:30N 18°25' W 064°36'0 0.0
2016-Jan-28 14:30N 18°25' W 064°36'1 0.0
2016-Jan-27 10:31N 18°26' W 064°37'0 0.0
2016-Jan-27 09:32N 18°26' W 064°37'0 0.0
2016-Jan-27 07:13N 18°26' W 064°37'  
Track history (hours):
 
Tides and Currents Weather Stations Pressure Air Temp Water Temp Dewpoint Dewpoint Depression Visibility Wind Speed Wind Dir Waves Ship Positions

Tortola's Pride

Last reported at 2016-Feb-03 19:34 UTC. Time now 2016-Feb-07 23:57 UTC.
Position N 18°24' W 064°34'.

Length 49 m; draft 2.8 m.

Type: Cargo ship. MMSI: 355921000.

Date/timePositionNaut miles runAvg speedWind from/ knotsBaromVisibWave heightAir tempDewpointWater temp
2016-Feb-03 19:34N 18°24' W 064°34'13 0.4
2016-Feb-02 07:25N 18°22' W 064°21'8 9.1
2016-Feb-02 06:33N 18°24' W 064°29'  
2016-Jan-31 02:27N 18°26' W 064°37'0 0.0
2016-Jan-31 00:20N 18°26' W 064°37'1 1.2
2016-Jan-30 23:33N 18°25' W 064°36'0 0.0
2016-Jan-30 22:34N 18°25' W 064°36'0 0.0
2016-Jan-30 19:21N 18°25' W 064°36'0 0.0
2016-Jan-30 18:34N 18°25' W 064°36'0 0.0
2016-Jan-30 17:33N 18°25' W 064°36'0 0.0
2016-Jan-30 16:34N 18°25' W 064°36'0 0.0
2016-Jan-30 15:33N 18°25' W 064°36'0 0.0
2016-Jan-30 14:33N 18°25' W 064°36'1 0.0
2016-Jan-29 02:25N 18°26' W 064°37'1 0.1
2016-Jan-28 17:33N 18°25' W 064°36'0 0.0
2016-Jan-28 16:32N 18°25' W 064°36'0 0.0
2016-Jan-28 15:30N 18°25' W 064°36'0 0.0
2016-Jan-28 14:30N 18°25' W 064°36'1 0.0
2016-Jan-27 10:31N 18°26' W 064°37'0 0.0
2016-Jan-27 09:32N 18°26' W 064°37'0 0.0
2016-Jan-27 07:13N 18°26' W 064°37'  

Dump ship's entire track history